Gaz Palmyra — 3FCO4 — position and weather

sailwx.info

Track history (hours):
 
Tides and Currents Weather Stations Pressure Air Temp Water Temp Dewpoint Dewpoint Depression Visibility Wind Speed Wind Dir Waves Ship Positions

Gaz Palmyra

Last reported at 2014-Oct-30 18:28 UTC. Time now 2014-Nov-01 07:40 UTC.
Position N 36°47' E 001°28'.

Length 137 m; draft 8.1 m.

Type: Ship (hazmat cat C). MMSI: 353247000.

Date/timePositionNaut miles runAvg speedWind from/ knotsBaromVisibWave heightAir tempDewpointWater temp
2014-Oct-30 18:28N 36°47' E 001°28'1212.8
2014-Oct-30 17:33N 36°48' E 001°42'1413.4
2014-Oct-30 16:31N 36°49' E 001°60'4313.0
2014-Oct-30 13:14N 36°53' E 002°53'  
2014-Oct-25 05:26N 36°47' E 003°06'0 0.2
2014-Oct-25 02:32N 36°47' E 003°07'0 0.0
2014-Oct-25 01:14N 36°47' E 003°07'2 0.9
2014-Oct-24 23:23N 36°49' E 003°06'1211.5
2014-Oct-24 22:18N 36°53' E 002°51'1013.7
2014-Oct-24 21:33N 36°52' E 002°39'1313.4
2014-Oct-24 20:33N 36°50' E 002°22'1413.5
2014-Oct-24 19:32N 36°49' E 002°05'2713.1
2014-Oct-24 17:30N 36°47' E 001°32'1313.3
2014-Oct-24 16:33N 36°46' E 001°16'1414.0
2014-Oct-24 15:33N 36°44' E 000°59'1414.1
2014-Oct-24 14:33N 36°37' E 000°44'1414.0
2014-Oct-24 13:33N 36°29' E 000°29'1413.9
2014-Oct-24 12:32N 36°19' E 000°17'1414.0
2014-Oct-24 11:33N 36°09' E 000°06'  
Track history (hours):
 
Tides and Currents Weather Stations Pressure Air Temp Water Temp Dewpoint Dewpoint Depression Visibility Wind Speed Wind Dir Waves Ship Positions

Gaz Palmyra

Last reported at 2014-Oct-30 18:28 UTC. Time now 2014-Nov-01 07:40 UTC.
Position N 36°47' E 001°28'.

Length 137 m; draft 8.1 m.

Type: Ship (hazmat cat C). MMSI: 353247000.

Date/timePositionNaut miles runAvg speedWind from/ knotsBaromVisibWave heightAir tempDewpointWater temp
2014-Oct-30 18:28N 36°47' E 001°28'1212.8
2014-Oct-30 17:33N 36°48' E 001°42'1413.4
2014-Oct-30 16:31N 36°49' E 001°60'4313.0
2014-Oct-30 13:14N 36°53' E 002°53'  
2014-Oct-25 05:26N 36°47' E 003°06'0 0.2
2014-Oct-25 02:32N 36°47' E 003°07'0 0.0
2014-Oct-25 01:14N 36°47' E 003°07'2 0.9
2014-Oct-24 23:23N 36°49' E 003°06'1211.5
2014-Oct-24 22:18N 36°53' E 002°51'1013.7
2014-Oct-24 21:33N 36°52' E 002°39'1313.4
2014-Oct-24 20:33N 36°50' E 002°22'1413.5
2014-Oct-24 19:32N 36°49' E 002°05'2713.1
2014-Oct-24 17:30N 36°47' E 001°32'1313.3
2014-Oct-24 16:33N 36°46' E 001°16'1414.0
2014-Oct-24 15:33N 36°44' E 000°59'1414.1
2014-Oct-24 14:33N 36°37' E 000°44'1414.0
2014-Oct-24 13:33N 36°29' E 000°29'1413.9
2014-Oct-24 12:32N 36°19' E 000°17'1414.0
2014-Oct-24 11:33N 36°09' E 000°06'  

Dump ship's entire track history